Time;durP1;ratioP1;P1;durP2;ratioP2;P2;SDS_P1;SDS_P2;PMS_P1;PMS_P2;Temp;Humidity;BMP_temperature;BMP_pressure;BME280_temperature;BME280_humidity;BME280_pressure;Samples;Min_cycle;Max_cycle;Signal;HPM_P1;HPM_P2
2023/06/12 00:00:51;;;;;;;;;;;;;;;23.25;37.08;101485.44;5007374;28;4238;-71
2023/06/12 00:03:19;;;;;;;;;;;;;;;23.26;36.92;101481.13;5009058;28;4040;-71
2023/06/12 00:05:45;;;;;;;;;;;;;;;23.25;36.95;101488.31;5007638;28;4234;-71
2023/06/12 00:08:13;;;;;;;;;;;;;;;23.25;37.26;101485.44;5005164;28;4565;-72
2023/06/12 00:10:40;;;;;;;;;;;;;;;23.25;36.81;101484.66;5006746;28;3905;-71
2023/06/12 00:13:07;;;;;;;;;;;;;;;23.25;36.97;101479.66;5006301;28;3994;-71
2023/06/12 00:15:34;;;;;;;;;;;;;;;23.24;37.06;101489.69;5004150;28;4209;-71
2023/06/12 00:18:01;;;;;;;;;;;;;;;23.23;37.10;101476.66;5005070;28;4586;-71
2023/06/12 00:20:28;;;;;;;;;;;;;;;23.22;36.93;101489.59;5009644;28;4167;-71
2023/06/12 00:22:54;;;;;;;;;;;;;;;23.22;36.86;101483.81;5006409;28;4218;-71
2023/06/12 00:25:20;;;;;;;;;;;;;;;23.20;36.83;101489.50;5006866;28;4282;-71
2023/06/12 00:27:47;;;;;;;;;;;;;;;23.19;36.76;101483.00;5008346;28;4142;-71
2023/06/12 00:30:13;;;;;;;;;;;;;;;23.16;36.82;101486.47;5008041;28;4360;-71
2023/06/12 00:32:40;;;;;;;;;;;;;;;23.15;36.74;101488.59;5012594;28;4230;-71
2023/06/12 00:35:07;;;;;;;;;;;;;;;23.16;36.63;101495.13;5012177;28;4256;-71
2023/06/12 00:37:33;;;;;;;;;;;;;;;23.15;36.46;101499.41;5014874;28;4403;-71
2023/06/12 00:39:59;;;;;;;;;;;;;;;23.12;36.53;101489.16;5007034;28;4235;-71
2023/06/12 00:42:30;;;;;;;;;;;;;;;23.12;36.39;101494.94;5003978;28;6591;-71
2023/06/12 00:44:56;;;;;;;;;;;;;;;23.12;36.56;101500.72;5004735;28;4238;-71
2023/06/12 00:47:23;;;;;;;;;;;;;;;23.10;36.45;101497.72;5005682;28;4138;-71
2023/06/12 00:49:49;;;;;;;;;;;;;;;23.08;36.63;101495.50;5005379;28;4057;-71
2023/06/12 00:52:16;;;;;;;;;;;;;;;23.07;36.35;101493.28;5006784;28;4168;-71
2023/06/12 00:54:42;;;;;;;;;;;;;;;23.04;36.34;101501.06;5010085;28;4169;-71
2023/06/12 00:57:08;;;;;;;;;;;;;;;23.03;36.37;101498.84;5004975;28;4102;-71
2023/06/12 00:59:35;;;;;;;;;;;;;;;23.01;36.27;101502.41;5005206;28;4187;-71
2023/06/12 01:02:03;;;;;;;;;;;;;;;23.02;36.10;101503.91;5005666;28;4290;-71
2023/06/12 01:04:29;;;;;;;;;;;;;;;22.98;36.06;101498.63;5004222;28;4159;-72
2023/06/12 01:07:03;;;;;;;;;;;;;;;22.97;36.28;101499.28;5007918;28;4042;-72
2023/06/12 01:09:40;;;;;;;;;;;;;;;22.93;36.28;101499.84;5003067;28;3959;-72
2023/06/12 01:12:07;;;;;;;;;;;;;;;22.91;36.33;101499.75;4998659;28;4184;-71
2023/06/12 01:14:33;;;;;;;;;;;;;;;22.90;36.26;101504.03;5005089;28;4139;-72
2023/06/12 01:17:01;;;;;;;;;;;;;;;22.87;36.41;101504.59;5015301;28;4143;-72
2023/06/12 01:19:29;;;;;;;;;;;;;;;22.87;36.49;101505.34;5007449;28;4052;-72
2023/06/12 01:21:59;;;;;;;;;;;;;;;22.86;36.54;101503.88;5005638;28;4166;-70
2023/06/12 01:24:25;;;;;;;;;;;;;;;22.85;36.54;101505.25;5001731;28;4139;-71
2023/06/12 01:26:52;;;;;;;;;;;;;;;22.84;35.99;101503.78;5005616;28;4113;-71
2023/06/12 01:29:36;;;;;;;;;;;;;;;22.83;36.17;101499.38;5003557;28;4038;-71
2023/06/12 01:32:02;;;;;;;;;;;;;;;22.82;36.31;101503.69;5000964;28;4226;-70
2023/06/12 01:34:37;;;;;;;;;;;;;;;22.83;36.51;101501.53;5020649;28;4308;-70
2023/06/12 01:37:14;;;;;;;;;;;;;;;22.82;36.25;101492.13;5005996;28;4293;-70
2023/06/12 01:39:41;;;;;;;;;;;;;;;22.79;36.18;101497.06;5005067;28;4041;-71
2023/06/12 01:42:07;;;;;;;;;;;;;;;22.79;36.51;101496.28;4989412;28;4939;-71
2023/06/12 01:44:34;;;;;;;;;;;;;;;22.75;36.35;101493.97;4997924;28;4080;-71
2023/06/12 01:47:01;;;;;;;;;;;;;;;22.73;36.39;101496.03;4994845;28;4174;-71
2023/06/12 01:49:27;;;;;;;;;;;;;;;22.70;36.85;101500.97;5012870;28;4205;-71
2023/06/12 01:51:54;;;;;;;;;;;;;;;22.72;36.40;101500.28;5013028;28;4186;-70
2023/06/12 01:54:21;;;;;;;;;;;;;;;22.71;36.51;101498.81;5014162;28;4028;-70
2023/06/12 01:56:48;;;;;;;;;;;;;;;22.69;36.68;101495.84;4998369;28;4214;-70
2023/06/12 01:59:15;;;;;;;;;;;;;;;22.69;36.72;101505.22;5012659;28;3987;-71
2023/06/12 02:01:45;;;;;;;;;;;;;;;22.68;36.65;101506.63;5011794;28;4074;-70
2023/06/12 02:04:12;;;;;;;;;;;;;;;22.65;36.83;101507.19;5012542;28;4037;-71
2023/06/12 02:06:38;;;;;;;;;;;;;;;22.63;36.70;101509.97;5005782;28;4144;-70
2023/06/12 02:09:05;;;;;;;;;;;;;;;22.63;36.80;101507.09;5010026;28;4165;-71
2023/06/12 02:11:32;;;;;;;;;;;;;;;22.60;36.94;101503.34;5004609;28;4087;-71
2023/06/12 02:13:58;;;;;;;;;;;;;;;22.56;36.67;101500.28;5009280;28;4436;-70
2023/06/12 02:16:25;;;;;;;;;;;;;;;22.54;36.85;101500.94;5011444;28;5097;-71
2023/06/12 02:18:52;;;;;;;;;;;;;;;22.55;37.05;101502.44;5011169;28;4284;-70
2023/06/12 02:21:19;;;;;;;;;;;;;;;22.55;37.20;101496.66;5004269;28;4043;-71
2023/06/12 02:23:46;;;;;;;;;;;;;;;22.53;37.38;101505.22;5007483;28;4093;-70
2023/06/12 02:26:17;;;;;;;;;;;;;;;22.48;37.29;101506.41;5005082;28;3965;-70
2023/06/12 02:28:43;;;;;;;;;;;;;;;22.50;37.51;101505.78;5003075;28;4145;-70
2023/06/12 02:31:11;;;;;;;;;;;;;;;22.48;37.37;101509.31;5005915;28;4531;-71
2023/06/12 02:33:38;;;;;;;;;;;;;;;22.47;37.59;101504.94;5008752;28;4145;-70
2023/06/12 02:36:07;;;;;;;;;;;;;;;22.39;37.50;101507.41;5004641;28;4217;-71
2023/06/12 02:38:34;;;;;;;;;;;;;;;22.41;37.73;101516.19;5016048;28;4291;-71
2023/06/12 02:41:00;;;;;;;;;;;;;;;22.39;37.54;101504.53;5014273;28;4052;-71
2023/06/12 02:43:27;;;;;;;;;;;;;;;22.37;37.81;101508.06;5010069;28;4294;-70
2023/06/12 02:45:54;;;;;;;;;;;;;;;22.34;37.85;101515.13;5011332;28;4135;-70
2023/06/12 02:48:23;;;;;;;;;;;;;;;22.31;37.77;101516.44;5004552;28;4618;-70
2023/06/12 02:50:49;;;;;;;;;;;;;;;22.33;37.84;101518.66;5003304;28;4101;-70
2023/06/12 02:53:15;;;;;;;;;;;;;;;22.29;37.78;101513.44;5002429;28;4191;-71
2023/06/12 02:55:44;;;;;;;;;;;;;;;22.27;37.83;101524.16;5010440;28;4225;-71
2023/06/12 02:58:10;;;;;;;;;;;;;;;22.27;37.51;101516.25;4995911;28;4360;-71
2023/06/12 03:00:37;;;;;;;;;;;;;;;22.24;37.67;101516.78;5002871;28;4154;-70
2023/06/12 03:03:05;;;;;;;;;;;;;;;22.23;37.40;101521.81;4988705;28;4108;-70
2023/06/12 03:05:31;;;;;;;;;;;;;;;22.20;37.97;101533.88;5010298;28;4139;-71
2023/06/12 03:07:58;;;;;;;;;;;;;;;22.16;37.87;101529.38;5006176;28;4679;-71
2023/06/12 03:10:24;;;;;;;;;;;;;;;22.15;38.08;101522.13;5013925;28;4101;-70
2023/06/12 03:12:51;;;;;;;;;;;;;;;22.14;38.24;101531.41;5004558;28;4210;-70
2023/06/12 03:15:18;;;;;;;;;;;;;;;22.15;38.40;101536.56;5013474;28;4519;-70
2023/06/12 03:17:44;;;;;;;;;;;;;;;22.12;38.28;101534.94;5011432;28;4235;-70
2023/06/12 03:20:11;;;;;;;;;;;;;;;22.13;38.18;101527.78;5009848;28;4033;-70
2023/06/12 03:22:37;;;;;;;;;;;;;;;22.12;38.14;101534.94;5010896;28;4095;-71
2023/06/12 03:25:05;;;;;;;;;;;;;;;22.14;38.08;101528.53;5009998;28;4265;-70
2023/06/12 03:27:31;;;;;;;;;;;;;;;22.10;38.42;101520.41;5007043;28;4036;-70
2023/06/12 03:29:58;;;;;;;;;;;;;;;22.10;38.16;101536.97;5007741;28;4260;-71
2023/06/12 03:32:25;;;;;;;;;;;;;;;22.10;38.12;101531.22;5013995;28;4188;-70
2023/06/12 03:34:55;;;;;;;;;;;;;;;22.08;38.37;101531.09;5015499;28;5035;-70
2023/06/12 03:37:23;;;;;;;;;;;;;;;22.09;38.71;101533.34;5010126;28;4417;-71
2023/06/12 03:39:51;;;;;;;;;;;;;;;22.08;38.85;101534.75;5007943;28;4180;-71
2023/06/12 03:42:18;;;;;;;;;;;;;;;22.09;38.72;101542.00;5018077;28;4354;-71
2023/06/12 03:44:50;;;;;;;;;;;;;;;22.07;39.01;101541.16;5023530;28;4098;-71
2023/06/12 03:47:17;;;;;;;;;;;;;;;22.09;38.91;101536.25;5013943;28;4042;-71
2023/06/12 03:49:43;;;;;;;;;;;;;;;22.07;38.96;101547.66;5015897;28;4093;-71
2023/06/12 03:52:10;;;;;;;;;;;;;;;22.07;39.10;101541.91;5019226;28;4214;-71
2023/06/12 03:54:37;;;;;;;;;;;;;;;22.06;38.98;101540.44;5006858;28;4053;-72
2023/06/12 03:57:04;;;;;;;;;;;;;;;22.06;39.18;101540.44;5009009;28;4139;-61
2023/06/12 03:59:30;;;;;;;;;;;;;;;22.06;39.16;101546.19;5009405;28;4309;-62
2023/06/12 04:01:58;;;;;;;;;;;;;;;22.05;39.63;101547.56;5018489;28;4142;-62
2023/06/12 04:04:25;;;;;;;;;;;;;;;22.05;39.52;101541.81;5014359;28;4074;-62
2023/06/12 04:06:53;;;;;;;;;;;;;;;22.01;39.31;101535.81;5016863;28;4237;-62
2023/06/12 04:09:20;;;;;;;;;;;;;;;22.02;39.65;101548.88;5018273;28;4835;-62
2023/06/12 04:11:49;;;;;;;;;;;;;;;22.03;39.42;101547.47;5010692;28;4386;-62
2023/06/12 04:14:15;;;;;;;;;;;;;;;22.04;39.79;101548.97;5011556;28;4309;-62
2023/06/12 04:16:42;;;;;;;;;;;;;;;22.04;39.62;101548.22;5017345;28;4069;-62
2023/06/12 04:19:09;;;;;;;;;;;;;;;22.05;40.02;101549.72;5016860;28;4762;-62
2023/06/12 04:21:36;;;;;;;;;;;;;;;22.06;39.76;101540.44;5014095;28;4122;-62
2023/06/12 04:24:03;;;;;;;;;;;;;;;22.05;39.44;101546.81;5015816;28;4160;-62
2023/06/12 04:26:31;;;;;;;;;;;;;;;22.07;39.74;101544.78;5002608;28;4187;-62
2023/06/12 04:28:59;;;;;;;;;;;;;;;22.03;39.62;101550.34;5004545;28;4145;-62
2023/06/12 04:31:29;;;;;;;;;;;;;;;22.04;39.75;101551.84;5010242;28;4126;-62
2023/06/12 04:33:55;;;;;;;;;;;;;;;22.07;39.89;101555.59;5004594;28;4215;-62
2023/06/12 04:36:22;;;;;;;;;;;;;;;22.03;40.23;101550.34;5001351;28;4072;-62
2023/06/12 04:38:52;;;;;;;;;;;;;;;21.71;40.79;101555.94;5007561;28;4156;-64
2023/06/12 04:41:19;;;;;;;;;;;;;;;21.62;40.98;101554.03;5003468;28;4244;-63
2023/06/12 04:43:49;;;;;;;;;;;;;;;21.52;40.57;101559.28;5015541;28;4216;-63
2023/06/12 04:46:17;;;;;;;;;;;;;;;21.52;41.34;101556.38;5007374;28;4241;-63
2023/06/12 04:48:45;;;;;;;;;;;;;;;21.51;40.85;101552.03;5007155;28;4188;-63
2023/06/12 04:51:13;;;;;;;;;;;;;;;21.46;40.85;101556.06;5003447;28;4074;-63
2023/06/12 04:53:40;;;;;;;;;;;;;;;21.47;40.05;101558.31;5012546;28;4531;-63
2023/06/12 04:56:08;;;;;;;;;;;;;;;21.45;40.07;101563.97;5000042;28;4399;-64
2023/06/12 04:58:37;;;;;;;;;;;;;;;21.31;39.93;101555.28;5004212;28;4059;-64
2023/06/12 05:01:04;;;;;;;;;;;;;;;21.46;40.11;101556.06;5006912;28;4114;-64
2023/06/12 05:03:32;;;;;;;;;;;;;;;21.41;39.29;101560.13;5004778;28;4805;-64
2023/06/12 05:05:59;;;;;;;;;;;;;;;21.34;38.61;101556.88;5022779;28;4128;-64
2023/06/12 05:08:27;;;;;;;;;;;;;;;21.45;39.29;101557.47;5009016;28;4068;-64
2023/06/12 05:10:53;;;;;;;;;;;;;;;21.46;39.05;101558.94;5007886;28;4178;-66
2023/06/12 05:13:20;;;;;;;;;;;;;;;21.44;38.51;101555.94;5005721;28;4152;-66
2023/06/12 05:15:47;;;;;;;;;;;;;;;21.39;39.84;101560.72;5004436;28;3942;-65
2023/06/12 05:18:14;;;;;;;;;;;;;;;21.49;38.61;101558.41;5014351;28;4130;-66
2023/06/12 05:20:41;;;;;;;;;;;;;;;21.53;38.67;101552.09;5006596;28;4202;-66
2023/06/12 05:23:07;;;;;;;;;;;;;;;21.48;38.45;101556.16;5002641;28;4445;-66
2023/06/12 05:25:34;;;;;;;;;;;;;;;21.61;38.48;101548.91;5004586;28;4217;-65
2023/06/12 05:28:01;;;;;;;;;;;;;;;21.58;38.21;101553.84;5005185;28;4364;-66
2023/06/12 05:30:29;;;;;;;;;;;;;;;21.63;37.61;101557.69;5014163;28;5479;-66
2023/06/12 05:32:58;;;;;;;;;;;;;;;21.64;37.76;101557.03;5012473;28;4121;-66
2023/06/12 05:35:25;;;;;;;;;;;;;;;21.63;37.47;101558.41;5007282;28;4309;-66
2023/06/12 05:37:51;;;;;;;;;;;;;;;21.64;37.11;101562.78;5013402;28;4034;-66
2023/06/12 05:40:18;;;;;;;;;;;;;;;21.63;36.96;101561.31;5012649;28;4268;-67
2023/06/12 05:42:45;;;;;;;;;;;;;;;21.64;37.35;101568.53;5005165;28;4145;-66
2023/06/12 05:45:12;;;;;;;;;;;;;;;21.61;37.24;101558.31;5012658;28;4202;-68
2023/06/12 05:47:39;;;;;;;;;;;;;;;22.01;37.53;101570.44;5002942;28;4666;-69
2023/06/12 05:50:07;;;;;;;;;;;;;;;22.26;36.82;101568.81;5010393;28;4749;-69
2023/06/12 05:52:35;;;;;;;;;;;;;;;22.42;36.38;101565.97;5010129;28;4125;-69
2023/06/12 05:55:05;;;;;;;;;;;;;;;22.52;36.22;101575.88;5005173;28;4121;-67
2023/06/12 05:57:33;;;;;;;;;;;;;;;22.58;36.22;101567.50;5011682;28;4141;-68
2023/06/12 05:59:59;;;;;;;;;;;;;;;22.62;35.74;101572.75;5014249;28;4282;-68
2023/06/12 06:02:26;;;;;;;;;;;;;;;22.72;36.46;101575.38;5010524;28;4288;-68
2023/06/12 06:04:54;;;;;;;;;;;;;;;22.73;36.31;101553.78;5012977;28;4376;-68
2023/06/12 06:07:21;;;;;;;;;;;;;;;22.81;35.98;101559.91;5002489;28;4232;-70
2023/06/12 06:09:48;;;;;;;;;;;;;;;22.86;35.76;101555.84;5013991;28;4761;-67
2023/06/12 06:12:15;;;;;;;;;;;;;;;22.70;35.30;101555.06;5002004;28;4196;-64
2023/06/12 06:14:42;;;;;;;;;;;;;;;22.50;35.74;101561.34;5009943;28;4015;-69
2023/06/12 06:17:09;;;;;;;;;;;;;;;22.67;35.54;101562.88;4998102;28;5352;-70
2023/06/12 06:19:36;;;;;;;;;;;;;;;22.79;35.24;101562.72;4999792;28;4121;-72
2023/06/12 06:22:04;;;;;;;;;;;;;;;22.73;35.88;101574.72;4997921;28;4115;-71
2023/06/12 06:24:32;;;;;;;;;;;;;;;22.78;35.30;101561.97;5006233;28;4446;-71
2023/06/12 06:26:58;;;;;;;;;;;;;;;22.82;35.53;101567.19;5003613;28;4222;-70
2023/06/12 06:29:25;;;;;;;;;;;;;;;22.86;35.39;101570.28;5010133;28;4125;-66
2023/06/12 06:31:51;;;;;;;;;;;;;;;22.96;35.32;101570.75;5004500;28;4184;-67
2023/06/12 06:34:18;;;;;;;;;;;;;;;22.92;35.63;101570.56;5009165;28;4178;-68
2023/06/12 06:36:45;;;;;;;;;;;;;;;22.91;36.22;101577.00;5023102;28;4245;-69
2023/06/12 06:39:11;;;;;;;;;;;;;;;22.85;35.39;101580.34;5010090;28;4362;-68
2023/06/12 06:41:39;;;;;;;;;;;;;;;22.90;35.86;101581.25;5016113;28;3988;-70
2023/06/12 06:44:05;;;;;;;;;;;;;;;22.98;35.60;101584.56;5003863;28;4092;-67
2023/06/12 06:46:32;;;;;;;;;;;;;;;22.93;35.57;101577.84;5006589;28;4106;-75
2023/06/12 06:48:59;;;;;;;;;;;;;;;22.85;35.40;101589.00;5012911;28;4151;-73
2023/06/12 06:51:25;;;;;;;;;;;;;;;22.89;35.47;101588.44;5011871;28;4080;-71
2023/06/12 06:53:52;;;;;;;;;;;;;;;22.86;35.29;101586.84;5003897;28;4172;-73
2023/06/12 06:56:19;;;;;;;;;;;;;;;22.81;35.93;101583.03;5016248;28;4101;-72
2023/06/12 06:58:48;;;;;;;;;;;;;;;22.90;35.90;101584.16;5005902;28;4231;-72
2023/06/12 07:01:15;;;;;;;;;;;;;;;22.84;36.02;101581.75;5012302;28;3963;-69
2023/06/12 07:03:42;;;;;;;;;;;;;;;22.78;35.87;101587.94;4995728;28;4911;-72
2023/06/12 07:06:09;;;;;;;;;;;;;;;22.73;35.73;101585.53;5000265;28;5409;-71
2023/06/12 07:08:36;;;;;;;;;;;;;;;22.67;36.01;101591.00;4995758;28;4265;-72
2023/06/12 07:11:04;;;;;;;;;;;;;;;22.66;36.09;101598.19;4997200;28;4036;-69
2023/06/12 07:13:31;;;;;;;;;;;;;;;22.85;35.90;101577.44;5006619;28;4442;-73
2023/06/12 07:15:57;;;;;;;;;;;;;;;22.80;36.15;101595.97;5003073;28;4359;-74
2023/06/12 07:18:27;;;;;;;;;;;;;;;22.89;35.89;101600.75;5007355;28;4093;-68
2023/06/12 07:20:54;;;;;;;;;;;;;;;22.90;35.50;101587.78;4996704;28;4078;-70
2023/06/12 07:23:20;;;;;;;;;;;;;;;22.83;35.78;101599.72;5007680;28;4064;-70
2023/06/12 07:25:46;;;;;;;;;;;;;;;22.79;35.55;101603.13;5002012;28;4260;-70
2023/06/12 07:28:13;;;;;;;;;;;;;;;22.76;35.00;101601.56;5007205;28;4224;-70
2023/06/12 07:30:39;;;;;;;;;;;;;;;22.75;35.42;101609.47;5008650;28;4135;-70
2023/06/12 07:33:06;;;;;;;;;;;;;;;22.79;34.93;101594.47;5006581;28;4191;-70
2023/06/12 07:35:32;;;;;;;;;;;;;;;22.86;34.77;101590.50;4998463;28;4053;-70
2023/06/12 07:38:00;;;;;;;;;;;;;;;22.77;35.06;101591.50;5015730;28;4170;-70
2023/06/12 07:40:27;;;;;;;;;;;;;;;22.91;34.80;101592.19;5012332;28;4103;-70
2023/06/12 07:42:53;;;;;;;;;;;;;;;22.90;34.28;101587.78;5000893;28;4225;-69
2023/06/12 07:45:20;;;;;;;;;;;;;;;22.88;34.44;101592.72;4996217;28;4001;-70
2023/06/12 07:47:49;;;;;;;;;;;;;;;22.95;34.50;101585.84;4991134;28;4310;-70
2023/06/12 07:50:19;;;;;;;;;;;;;;;22.94;34.60;101587.97;5002998;28;4048;-70
2023/06/12 07:52:45;;;;;;;;;;;;;;;22.91;34.16;101591.44;4998489;28;4266;-70
2023/06/12 07:55:14;;;;;;;;;;;;;;;22.91;34.79;101585.66;5006426;28;4216;-74
2023/06/12 07:57:41;;;;;;;;;;;;;;;23.38;34.22;101590.72;4998037;28;4240;-78
2023/06/12 08:00:08;;;;;;;;;;;;;;;23.29;33.59;101589.63;5012736;28;4405;-79
2023/06/12 08:02:44;;;;;;;;;;;;;;;23.53;33.94;101586.34;5011698;28;4218;-79
2023/06/12 08:05:11;;;;;;;;;;;;;;;23.59;33.36;101586.59;5013417;28;4257;-82
2023/06/12 08:07:38;;;;;;;;;;;;;;;23.67;33.54;101589.88;5001315;28;4364;-77
2023/06/12 08:10:07;;;;;;;;;;;;;;;23.73;32.84;101581.47;5015913;28;4789;-76
2023/06/12 08:12:34;;;;;;;;;;;;;;;23.69;32.89;101584.19;5009534;28;4211;-75
2023/06/12 08:15:01;;;;;;;;;;;;;;;23.31;32.98;101581.03;5012307;28;4135;-74
2023/06/12 08:17:28;;;;;;;;;;;;;;;23.46;33.28;101581.69;5011956;28;4000;-80
2023/06/12 08:19:54;;;;;;;;;;;;;;;23.50;32.88;101573.19;5010607;28;4104;-81
2023/06/12 08:22:23;;;;;;;;;;;;;;;23.25;32.08;101575.00;5010170;28;4223;-79
2023/06/12 08:24:50;;;;;;;;;;;;;;;23.28;31.77;101575.84;5005924;28;4995;-78
2023/06/12 08:27:16;;;;;;;;;;;;;;;23.27;30.79;101575.06;5009552;28;4517;-78
2023/06/12 08:29:43;;;;;;;;;;;;;;;23.41;30.56;101569.94;5015653;28;4094;-76
2023/06/12 08:32:10;;;;;;;;;;;;;;;23.35;31.00;101566.03;5005778;28;4258;-73
2023/06/12 08:34:37;;;;;;;;;;;;;;;23.37;30.02;101569.75;5024888;28;4128;-77
2023/06/12 08:37:03;;;;;;;;;;;;;;;23.44;30.68;101564.25;4998799;28;4141;-74
2023/06/12 08:39:30;;;;;;;;;;;;;;;23.36;29.85;101553.81;5008196;28;3961;-75
2023/06/12 08:42:10;;;;;;;;;;;;;;;23.47;30.58;101562.94;5004297;28;4131;-75
2023/06/12 08:44:37;;;;;;;;;;;;;;;23.54;30.89;101561.81;5005002;28;4127;-74
2023/06/12 08:47:03;;;;;;;;;;;;;;;23.60;30.35;101559.19;5002563;28;4141;-73
2023/06/12 08:49:30;;;;;;;;;;;;;;;23.78;30.70;101562.91;5007197;28;3929;-74
2023/06/12 08:51:56;;;;;;;;;;;;;;;23.47;31.08;101566.56;5003139;28;4345;-75
2023/06/12 08:54:23;;;;;;;;;;;;;;;23.66;31.33;101573.91;5012902;28;4082;-74
2023/06/12 08:56:49;;;;;;;;;;;;;;;23.55;31.59;101569.09;4995171;28;4040;-75
2023/06/12 08:59:16;;;;;;;;;;;;;;;23.57;32.11;101572.06;5006682;28;3999;-75
2023/06/12 09:01:43;;;;;;;;;;;;;;;23.59;31.79;101561.34;5006106;28;4508;-73
2023/06/12 09:04:28;;;;;;;;;;;;;;;23.64;31.36;101565.16;5002078;28;3895;-73
2023/06/12 09:07:01;;;;;;;;;;;;;;;23.53;31.50;101555.28;5007692;28;4110;-74
2023/06/12 09:09:37;;;;;;;;;;;;;;;23.71;31.98;101564.03;5005142;28;4199;-77
2023/06/12 09:12:04;;;;;;;;;;;;;;;23.82;31.73;101551.53;5012575;28;4267;-77
2023/06/12 09:14:32;;;;;;;;;;;;;;;23.61;32.31;101560.69;5012099;28;4258;-80
2023/06/12 09:16:58;;;;;;;;;;;;;;;23.62;31.82;101562.19;5006333;28;4514;-78
2023/06/12 09:19:25;;;;;;;;;;;;;;;23.67;32.13;101558.06;5006291;28;3985;-76
2023/06/12 09:21:51;;;;;;;;;;;;;;;23.78;32.19;101562.91;5006257;28;4058;-79
2023/06/12 09:24:17;;;;;;;;;;;;;;;23.71;32.27;101560.38;5001688;28;4162;-74
2023/06/12 09:26:44;;;;;;;;;;;;;;;23.61;32.21;101549.84;5002969;28;4557;-72
2023/06/12 09:29:11;;;;;;;;;;;;;;;23.81;32.32;101547.13;5001909;28;4245;-75
2023/06/12 09:31:40;;;;;;;;;;;;;;;23.82;31.53;101557.31;5000363;28;4141;-76
2023/06/12 09:34:06;;;;;;;;;;;;;;;23.90;32.20;101544.59;5000001;28;4799;-77
2023/06/12 09:36:33;;;;;;;;;;;;;;;23.77;31.79;101549.84;5010272;28;3998;-77
2023/06/12 09:38:59;;;;;;;;;;;;;;;23.68;32.94;101547.25;5008549;28;4031;-76
2023/06/12 09:41:26;;;;;;;;;;;;;;;23.67;32.10;101549.38;5009623;28;4195;-76
2023/06/12 09:43:53;;;;;;;;;;;;;;;23.58;33.83;101541.75;4999522;28;4269;-76
2023/06/12 09:46:23;;;;;;;;;;;;;;;23.59;33.38;101546.91;5005248;28;3977;-76
2023/06/12 09:48:53;;;;;;;;;;;;;;;23.66;32.52;101538.47;5004019;28;5372;-75
2023/06/12 09:51:20;;;;;;;;;;;;;;;23.63;32.14;101537.66;4998897;28;4107;-76
2023/06/12 09:53:46;;;;;;;;;;;;;;;23.64;32.18;101536.25;5006144;28;4331;-76
2023/06/12 09:56:12;;;;;;;;;;;;;;;23.61;32.57;101531.75;4999876;28;4063;-77
2023/06/12 09:58:39;;;;;;;;;;;;;;;23.71;32.35;101529.34;5003486;28;4202;-71
2023/06/12 10:01:06;;;;;;;;;;;;;;;23.66;32.69;101536.31;5006995;28;3847;-75
2023/06/12 10:03:34;;;;;;;;;;;;;;;23.66;32.40;101533.44;5005893;28;4261;-74
2023/06/12 10:06:00;;;;;;;;;;;;;;;23.67;33.06;101526.25;5001664;28;3981;-75
2023/06/12 10:08:30;;;;;;;;;;;;;;;23.54;32.57;101524.97;5002630;28;4545;-78
2023/06/12 10:10:56;;;;;;;;;;;;;;;23.67;32.42;101525.53;5009059;28;4103;-76
2023/06/12 10:13:22;;;;;;;;;;;;;;;23.93;32.29;101525.91;5003048;28;4048;-76
2023/06/12 10:15:49;;;;;;;;;;;;;;;23.88;32.82;101509.81;5006605;28;4324;-77
2023/06/12 10:18:16;;;;;;;;;;;;;;;23.92;32.68;101530.22;5004205;28;4084;-80
2023/06/12 10:20:42;;;;;;;;;;;;;;;23.86;32.62;101527.81;5004454;28;4117;-76
2023/06/12 10:23:09;;;;;;;;;;;;;;;23.83;32.82;101509.63;5002586;28;4481;-75
2023/06/12 10:25:35;;;;;;;;;;;;;;;23.80;32.93;101519.63;5004567;28;3952;-77
2023/06/12 10:28:02;;;;;;;;;;;;;;;23.94;32.97;101498.50;5010462;28;3978;-77
2023/06/12 10:30:29;;;;;;;;;;;;;;;24.18;32.60;101516.84;5010563;28;4231;-80
2023/06/12 10:32:55;;;;;;;;;;;;;;;24.19;32.26;101515.44;5001281;28;4188;-77
2023/06/12 10:35:28;;;;;;;;;;;;;;;24.39;32.55;101515.50;5000066;28;4183;-76
2023/06/12 10:37:55;;;;;;;;;;;;;;;24.13;32.68;101514.47;5006308;28;4958;-75
2023/06/12 10:40:22;;;;;;;;;;;;;;;24.43;32.75;101517.84;5017085;28;4117;-75
2023/06/12 10:43:08;;;;;;;;;;;;;;;24.61;33.05;101514.94;5011268;28;4088;-76
2023/06/12 10:45:35;;;;;;;;;;;;;;;24.70;33.10;101510.22;5006232;28;4041;-82
2023/06/12 10:48:02;;;;;;;;;;;;;;;24.60;33.28;101504.75;4998205;28;4263;-77
2023/06/12 10:50:28;;;;;;;;;;;;;;;24.66;33.68;101505.75;5014426;28;4037;-80
2023/06/12 10:52:55;;;;;;;;;;;;;;;24.61;33.85;101504.09;5009199;28;4202;-81
2023/06/12 10:55:22;;;;;;;;;;;;;;;24.67;33.78;101504.34;5012511;28;3995;-78
2023/06/12 10:57:55;;;;;;;;;;;;;;;24.70;34.48;101504.44;4995781;28;4317;-75
2023/06/12 11:00:35;;;;;;;;;;;;;;;24.68;34.39;101513.78;5013491;28;3968;-78
2023/06/12 11:03:06;;;;;;;;;;;;;;;24.39;34.47;101506.09;5009869;28;4051;-79
2023/06/12 11:05:32;;;;;;;;;;;;;;;24.40;34.39;101496.00;5009186;28;4115;-77
2023/06/12 11:08:03;;;;;;;;;;;;;;;24.53;34.80;101495.09;5009377;28;4152;-77
2023/06/12 11:10:29;;;;;;;;;;;;;;;24.56;34.64;101496.69;5004977;28;4064;-78
2023/06/12 11:12:56;;;;;;;;;;;;;;;24.56;34.46;101490.88;5006632;28;4481;-79
2023/06/12 11:15:22;;;;;;;;;;;;;;;24.47;34.84;101494.88;5009688;28;4263;-81
2023/06/12 11:17:49;;;;;;;;;;;;;;;24.54;34.57;101482.13;5015002;28;4208;-79
2023/06/12 11:20:18;;;;;;;;;;;;;;;24.55;34.38;101483.59;5018848;28;4067;-81
2023/06/12 11:22:45;;;;;;;;;;;;;;;24.28;34.71;101481.03;5010056;28;4063;-75
2023/06/12 11:25:12;;;;;;;;;;;;;;;24.13;35.62;101480.47;5010097;28;4378;-78
2023/06/12 11:27:39;;;;;;;;;;;;;;;24.37;35.67;101468.38;5003723;28;4181;-78
2023/06/12 11:30:12;;;;;;;;;;;;;;;24.41;35.79;101468.53;5015733;28;4298;-78
2023/06/12 11:32:57;;;;;;;;;;;;;;;24.37;35.71;101468.38;5018255;28;4135;-79
2023/06/12 11:35:24;;;;;;;;;;;;;;;24.34;35.48;101463.94;5014737;28;4585;-75
2023/06/12 11:37:52;;;;;;;;;;;;;;;24.23;35.84;101459.88;5011212;28;4104;-75
2023/06/12 11:40:25;;;;;;;;;;;;;;;24.42;35.70;101453.41;5010125;28;4173;-73
2023/06/12 11:42:52;;;;;;;;;;;;;;;24.42;35.64;101455.56;5016380;28;4111;-76
2023/06/12 11:45:18;;;;;;;;;;;;;;;24.45;35.77;101460.03;5008297;28;4228;-75
2023/06/12 11:47:45;;;;;;;;;;;;;;;24.36;35.90;101455.31;5006935;28;4073;-74
2023/06/12 11:50:16;;;;;;;;;;;;;;;24.48;36.53;101450.03;5015645;28;4140;-71
2023/06/12 11:52:43;;;;;;;;;;;;;;;24.48;36.07;101450.03;5012731;28;4094;-75
2023/06/12 11:55:15;;;;;;;;;;;;;;;24.45;36.04;101449.19;5010005;28;4309;-74
2023/06/12 11:57:45;;;;;;;;;;;;;;;24.42;36.42;101455.56;5007168;28;4155;-72
2023/06/12 12:00:12;;;;;;;;;;;;;;;24.52;36.21;101455.97;5011084;28;4083;-74
2023/06/12 12:02:43;;;;;;;;;;;;;;;24.64;36.25;101450.66;5005790;28;4210;-76
2023/06/12 12:05:16;;;;;;;;;;;;;;;24.55;35.84;101453.91;5006953;28;4455;-82
2023/06/12 12:07:45;;;;;;;;;;;;;;;24.34;36.45;101452.34;5001820;28;4065;-85
2023/06/12 12:10:12;;;;;;;;;;;;;;;24.28;36.71;101444.19;5013406;28;3985;-85
2023/06/12 12:12:40;;;;;;;;;;;;;;;24.31;36.49;101447.88;5009103;28;4121;-82
2023/06/12 12:15:07;;;;;;;;;;;;;;;24.25;36.74;101446.22;5016161;28;4110;-82
2023/06/12 12:17:34;;;;;;;;;;;;;;;24.13;37.01;101434.19;5001756;28;3936;-82
2023/06/12 12:20:01;;;;;;;;;;;;;;;24.19;36.94;101437.31;5005449;28;4581;-82
2023/06/12 12:22:27;;;;;;;;;;;;;;;24.23;36.89;101430.94;5002846;28;4216;-85
2023/06/12 12:24:54;;;;;;;;;;;;;;;24.23;37.11;101425.16;5008695;28;4214;-78
2023/06/12 12:27:21;;;;;;;;;;;;;;;24.20;37.04;101424.31;5007075;28;3994;-82
2023/06/12 12:29:47;;;;;;;;;;;;;;;24.52;36.58;101417.59;5003302;28;4228;-74
2023/06/12 12:32:25;;;;;;;;;;;;;;;24.67;36.50;101414.59;5006320;28;4153;-75
2023/06/12 12:34:52;;;;;;;;;;;;;;;24.69;36.32;101424.75;5003925;28;4514;-74
2023/06/12 12:37:19;;;;;;;;;;;;;;;24.71;36.40;101416.88;5007264;28;4193;-74
2023/06/12 12:39:45;;;;;;;;;;;;;;;24.70;36.41;101424.09;5008679;28;4177;-75
2023/06/12 12:42:11;;;;;;;;;;;;;;;24.73;36.53;101411.16;5004395;28;4166;-75
2023/06/12 12:44:40;;;;;;;;;;;;;;;24.78;36.85;101420.75;4998337;28;4119;-74
2023/06/12 12:47:06;;;;;;;;;;;;;;;24.84;36.72;101420.97;5002331;28;4087;-74
2023/06/12 12:49:33;;;;;;;;;;;;;;;24.86;36.75;101412.34;5000516;28;4047;-74